| time (UTC) | temp F | wind direction | speed MPH | gust MPH | rain 1hr in | rain 24hr in | rain mn in | humidity % | barometer mb |
| 20260505161844 | 58 | 57 | 12.0 | 18.0 | 0.01 | 0.02 | 0.02 | 85 | 1007.3 |
| 20260505161400 | 58 | 125 | 9.0 | 13.0 | 0.01 | 0.02 | 0.02 | 88 | 1007.3 |
| 20260505160844 | 56 | 28 | 4.0 | 15.0 | 0.01 | 0.02 | 0.02 | 90 | 1007.3 |
| 20260505160343 | 55 | 57 | 8.0 | 15.0 | 0.01 | 0.02 | 0.02 | 90 | 1007.1 |
| 20260505153343 | 55 | 50 | 10.0 | 15.0 | 0.00 | 0.02 | 0.02 | 91 | 1006.9 |
| 20260505152843 | 55 | 40 | 8.0 | 14.0 | 0.00 | 0.02 | 0.02 | 91 | 1006.7 |
| 20260505152343 | 56 | 32 | 9.0 | 14.0 | 0.00 | 0.02 | 0.02 | 90 | 1006.6 |
| 20260505151842 | 56 | 40 | 8.0 | 12.0 | 0.00 | 0.02 | 0.02 | 90 | 1006.6 |
| 20260505151343 | 56 | 81 | 2.0 | 10.0 | 0.00 | 0.02 | 0.02 | 90 | 1007.1 |
| 20260505150843 | 56 | 67 | 5.0 | 10.0 | 0.00 | 0.02 | 0.02 | 88 | 1007.3 |
| 20260505150343 | 56 | 114 | 7.0 | 13.0 | 0.00 | 0.02 | 0.02 | 87 | 1007.1 |
| 20260505140341 | 59 | 328 | 4.0 | 10.0 | 0.01 | 0.02 | 0.02 | 87 | 1006.7 |
| 20260505130137 | 60 | 236 | 8.0 | 16.0 | 0.00 | 0.02 | 0.01 | 77 | 1006.8 |
| 20260505124839 | 60 | 250 | 5.0 | 11.0 | 0.00 | 0.02 | 0.01 | 76 | 1006.8 |
| 20260505124614 | 60 | 225 | 9.0 | 11.0 | 0.00 | 0.02 | 0.01 | 78 | 1006.7 |
| 20260505123839 | 60 | 256 | 8.0 | 12.0 | 0.00 | 0.02 | 0.01 | 77 | 1006.7 |
| 20260505123338 | 60 | 226 | 9.0 | 12.0 | 0.00 | 0.02 | 0.01 | 77 | 1006.7 |
| 20260505122838 | 60 | 233 | 8.0 | 12.0 | 0.00 | 0.02 | 0.01 | 77 | 1006.7 |
| 20260505122338 | 60 | 204 | 4.0 | 9.0 | 0.00 | 0.02 | 0.01 | 77 | 1006.7 |
| 20260505121838 | 60 | 221 | 5.0 | 11.0 | 0.00 | 0.02 | 0.01 | 77 | 1006.7 |
| 20260505121337 | 60 | 222 | 7.0 | 13.0 | 0.00 | 0.02 | 0.01 | 78 | 1006.7 |
| 20260505120838 | 60 | 225 | 8.0 | 14.0 | 0.00 | 0.02 | 0.01 | 79 | 1006.6 |
| 20260505120337 | 61 | 235 | 11.0 | 14.0 | 0.00 | 0.02 | 0.01 | 80 | 1006.6 |
| 20260505115837 | 61 | 209 | 9.0 | 15.0 | 0.00 | 0.02 | 0.01 | 79 | 1006.7 |
| 20260505115338 | 61 | 246 | 10.0 | 15.0 | 0.00 | 0.02 | 0.01 | 78 | 1006.6 |
| 20260505114837 | 61 | 248 | 9.0 | 15.0 | 0.00 | 0.02 | 0.01 | 75 | 1006.6 |
| 20260505114337 | 61 | 208 | 7.0 | 14.0 | 0.00 | 0.02 | 0.01 | 75 | 1006.6 |
| 20260505113837 | 61 | 212 | 9.0 | 14.0 | 0.00 | 0.02 | 0.01 | 74 | 1006.6 |
| 20260505113336 | 62 | 248 | 6.0 | 13.0 | 0.00 | 0.02 | 0.01 | 74 | 1006.6 |
| 20260505112836 | 62 | 221 | 8.0 | 13.0 | 0.00 | 0.02 | 0.01 | 73 | 1006.6 |
| 20260505112335 | 62 | 219 | 6.0 | 13.0 | 0.00 | 0.02 | 0.01 | 72 | 1006.6 |
| 20260505111835 | 63 | 236 | 8.0 | 12.0 | 0.00 | 0.02 | 0.01 | 71 | 1006.6 |
| 20260505111336 | 63 | 233 | 9.0 | 11.0 | 0.00 | 0.02 | 0.01 | 71 | 1006.6 |
| 20260505110835 | 64 | 205 | 7.0 | 11.0 | 0.00 | 0.02 | 0.01 | 71 | 1006.6 |
| 20260505110335 | 63 | 236 | 5.0 | 10.0 | 0.00 | 0.02 | 0.01 | 71 | 1006.5 |
| 20260505101835 | 59 | 226 | 7.0 | 11.0 | 0.00 | 0.02 | 0.01 | 80 | 1006.8 |
| 20260505101335 | 59 | 157 | 4.0 | 11.0 | 0.00 | 0.02 | 0.01 | 81 | 1006.8 |
| 20260505101108 | 59 | 225 | 4.0 | 7.0 | 0.00 | 0.02 | 0.01 | 80 | 1006.7 |
| 20260505100334 | 58 | 208 | 3.0 | 9.0 | 0.00 | 0.02 | 0.01 | 82 | 1006.7 |
| 20260505095834 | 58 | 201 | 6.0 | 9.0 | 0.00 | 0.02 | 0.01 | 82 | 1006.8 |
| 20260505095335 | 57 | 195 | 3.0 | 7.0 | 0.00 | 0.02 | 0.01 | 83 | 1006.8 |
| 20260505094834 | 57 | 209 | 2.0 | 7.0 | 0.00 | 0.02 | 0.01 | 85 | 1006.9 |
| 20260505094334 | 57 | 154 | 5.0 | 9.0 | 0.00 | 0.02 | 0.01 | 84 | 1006.9 |
| 20260505093834 | 57 | 177 | 4.0 | 9.0 | 0.00 | 0.02 | 0.01 | 84 | 1006.8 |
| 20260505093334 | 57 | 218 | 3.0 | 6.0 | 0.00 | 0.02 | 0.01 | 85 | 1006.8 |
| 20260505093109 | 57 | 185 | 4.0 | 6.0 | 0.00 | 0.02 | 0.01 | 85 | 1006.9 |
| 20260505092334 | 56 | 154 | 1.0 | 2.0 | 0.00 | 0.02 | 0.01 | 84 | 1006.8 |
| 20260505091834 | 56 | 67 | 0.0 | 1.0 | 0.00 | 0.02 | 0.01 | 84 | 1006.8 |
| 20260505091610 | 56 | 67 | 0.0 | 0.0 | 0.00 | 0.02 | 0.01 | 86 | 1006.8 |
| 20260505090333 | 56 | 67 | 0.0 | 4.0 | 0.00 | 0.02 | 0.01 | 87 | 1006.7 |
| 20260505085832 | 55 | 67 | 4.0 | 4.0 | 0.00 | 0.02 | 0.01 | 88 | 1006.9 |
| 20260505085603 | 55 | 83 | 0.0 | 5.0 | 0.00 | 0.02 | 0.01 | 88 | 1006.7 |
| 20260505084830 | 55 | 85 | 3.0 | 5.0 | 0.00 | 0.02 | 0.01 | 87 | 1006.9 |
| 20260505084601 | 55 | 84 | 3.0 | 4.0 | 0.00 | 0.02 | 0.01 | 89 | 1006.9 |
| 20260505083831 | 55 | 101 | 0.0 | 4.0 | 0.00 | 0.02 | 0.01 | 89 | 1006.8 |
| 20260505083332 | 55 | 61 | 3.0 | 4.0 | 0.00 | 0.02 | 0.01 | 90 | 1006.9 |
| 20260505082831 | 55 | 32 | 2.0 | 4.0 | 0.00 | 0.02 | 0.01 | 91 | 1006.8 |
| 20260505082605 | 55 | 60 | 2.0 | 5.0 | 0.00 | 0.02 | 0.01 | 91 | 1006.8 |
| 20260505081831 | 55 | 54 | 2.0 | 5.0 | 0.00 | 0.02 | 0.01 | 91 | 1006.9 |
| 20260505081331 | 54 | 29 | 3.0 | 4.0 | 0.00 | 0.02 | 0.01 | 91 | 1007.0 |
| 20260505080832 | 54 | 53 | 1.0 | 3.0 | 0.00 | 0.02 | 0.01 | 92 | 1007.0 |
| 20260505080331 | 54 | 25 | 1.0 | 3.0 | 0.00 | 0.02 | 0.01 | 92 | 1007.0 |
| 20260505075831 | 54 | 28 | 0.0 | 2.0 | 0.00 | 0.02 | 0.01 | 93 | 1007.2 |
| 20260505075330 | 54 | 197 | 0.0 | 0.0 | 0.00 | 0.02 | 0.01 | 93 | 1007.2 |
| 20260505074830 | 53 | 191 | 0.0 | 0.0 | 0.00 | 0.02 | 0.01 | 93 | 1007.2 |
| 20260505074330 | 53 | 198 | 0.0 | 0.0 | 0.00 | 0.02 | 0.01 | 93 | 1007.3 |
| 20260505073845 | 53 | 194 | 0.0 | 0.0 | 0.00 | 0.02 | 0.01 | 93 | 1007.4 |
| 20260505073330 | 53 | 193 | 0.0 | 0.0 | 0.00 | 0.02 | 0.01 | 93 | 1007.5 |
| 20260505072830 | 52 | 193 | 0.0 | 0.0 | 0.00 | 0.02 | 0.01 | 93 | 1007.6 |
| 20260505072329 | 52 | 195 | 0.0 | 0.0 | 0.00 | 0.02 | 0.01 | 93 | 1007.8 |
| 20260505071829 | 52 | 198 | 0.0 | 0.0 | 0.00 | 0.02 | 0.01 | 93 | 1007.9 |
| 20260505071329 | 52 | 198 | 0.0 | 0.0 | 0.00 | 0.02 | 0.01 | 93 | 1008.0 |
| 20260505070829 | 52 | 200 | 0.0 | 0.0 | 0.00 | 0.02 | 0.01 | 93 | 1008.0 |
| 20260505065829 | 51 | 204 | 0.0 | 0.0 | 0.00 | 0.02 | 0.01 | 93 | 1008.2 |
| 20260505065329 | 51 | 202 | 0.0 | 0.0 | 0.00 | 0.02 | 0.01 | 94 | 1008.1 |
| 20260505064828 | 51 | 202 | 0.0 | 0.0 | 0.00 | 0.02 | 0.01 | 94 | 1008.1 |
| 20260505064603 | 51 | 202 | 0.0 | 0.0 | 0.00 | 0.02 | 0.01 | 93 | 1008.2 |
| 20260505063828 | 51 | 184 | 0.0 | 0.0 | 0.00 | 0.02 | 0.01 | 93 | 1008.4 |
| 20260505063329 | 51 | 183 | 0.0 | 0.0 | 0.01 | 0.02 | 0.01 | 93 | 1008.4 |
| 20260505062328 | 51 | 181 | 0.0 | 2.0 | 0.01 | 0.02 | 0.01 | 94 | 1008.3 |
| 20260505062057 | 51 | 149 | 0.0 | 4.0 | 0.01 | 0.02 | 0.01 | 93 | 1008.4 |
| 20260505061328 | 51 | 149 | 1.0 | 4.0 | 0.01 | 0.02 | 0.01 | 93 | 1008.4 |
| 20260505061101 | 51 | 167 | 3.0 | 4.0 | 0.01 | 0.02 | 0.01 | 93 | 1008.5 |
| 20260505060327 | 51 | 166 | 2.0 | 3.0 | 0.01 | 0.02 | 0.01 | 93 | 1008.4 |
| 20260505055827 | 51 | 166 | 2.0 | 3.0 | 0.01 | 0.01 | 0.01 | 93 | 1008.5 |
| 20260505055557 | 51 | 163 | 2.0 | 3.0 | 0.01 | 0.01 | 0.01 | 93 | 1008.5 |
| 20260505054827 | 51 | 171 | 1.0 | 3.0 | 0.01 | 0.01 | 0.01 | 93 | 1008.6 |
| 20260505054602 | 51 | 176 | 0.0 | 0.0 | 0.01 | 0.01 | 0.01 | 93 | 1008.5 |
| 20260505053827 | 51 | 174 | 0.0 | 0.0 | 0.01 | 0.01 | 0.01 | 93 | 1008.5 |
| 20260505053326 | 50 | 174 | 0.0 | 2.0 | 0.00 | 0.01 | 0.00 | 93 | 1008.5 |
| 20260505052826 | 50 | 174 | 0.0 | 3.0 | 0.00 | 0.01 | 0.00 | 93 | 1008.4 |
| 20260505052327 | 50 | 174 | 0.0 | 4.0 | 0.00 | 0.01 | 0.00 | 93 | 1008.4 |
| 20260505051838 | 50 | 171 | 3.0 | 4.0 | 0.00 | 0.01 | 0.00 | 93 | 1008.4 |
| 20260505051327 | 50 | 138 | 0.0 | 4.0 | 0.00 | 0.01 | 0.00 | 93 | 1008.4 |
| 20260505050826 | 50 | 139 | 2.0 | 4.0 | 0.00 | 0.01 | 0.00 | 92 | 1008.4 |
| 20260505050325 | 50 | 173 | 4.0 | 4.0 | 0.00 | 0.01 | 0.00 | 92 | 1008.4 |
| 20260505040824 | 50 | 202 | 0.0 | 3.0 | 0.00 | 0.01 | 0.00 | 92 | 1008.2 |
| 20260505040324 | 50 | 198 | 2.0 | 3.0 | 0.00 | 0.01 | 0.00 | 92 | 1008.3 |
| 20260505040122 | 50 | 185 | 1.0 | 3.0 | 0.00 | 0.01 | 0.00 | 92 | 1008.4 |
| 20260505035324 | 50 | 198 | 1.0 | 3.0 | 0.00 | 0.01 | 0.00 | 92 | 1008.3 |
| 20260505034824 | 50 | 193 | 2.0 | 4.0 | 0.00 | 0.01 | 0.00 | 92 | 1008.4 |
| 20260505034555 | 50 | 197 | 3.0 | 4.0 | 0.00 | 0.01 | 0.00 | 92 | 1008.4 |
| 20260505033823 | 50 | 197 | 2.0 | 4.0 | 0.00 | 0.01 | 0.00 | 92 | 1008.4 |
| 20260505033323 | 50 | 197 | 4.0 | 4.0 | 0.00 | 0.01 | 0.00 | 92 | 1008.6 |
| 20260505032823 | 50 | 197 | 3.0 | 5.0 | 0.00 | 0.01 | 0.00 | 92 | 1008.4 |
| 20260505032323 | 50 | 176 | 4.0 | 5.0 | 0.00 | 0.01 | 0.00 | 92 | 1008.5 |
| 20260505031823 | 50 | 167 | 4.0 | 5.0 | 0.00 | 0.01 | 0.00 | 92 | 1008.5 |
| 20260505031557 | 50 | 166 | 4.0 | 5.0 | 0.00 | 0.01 | 0.00 | 92 | 1008.4 |
| 20260505031057 | 50 | 163 | 3.0 | 4.0 | 0.00 | 0.01 | 0.00 | 92 | 1008.4 |
| 20260505030322 | 50 | 139 | 3.0 | 4.0 | 0.00 | 0.01 | 0.00 | 92 | 1008.3 |
| 20260505025822 | 50 | 222 | 3.0 | 3.0 | 0.00 | 0.01 | 0.00 | 92 | 1008.4 |
| 20260505025322 | 50 | 226 | 2.0 | 4.0 | 0.00 | 0.01 | 0.00 | 92 | 1008.4 |
| 20260505025052 | 50 | 222 | 2.0 | 4.0 | 0.00 | 0.01 | 0.00 | 92 | 1008.4 |
| 20260505024322 | 50 | 224 | 2.0 | 5.0 | 0.00 | 0.01 | 0.00 | 92 | 1008.5 |
| 20260505023822 | 50 | 226 | 4.0 | 5.0 | 0.00 | 0.01 | 0.00 | 93 | 1008.5 |
| 20260505023321 | 50 | 226 | 2.0 | 4.0 | 0.00 | 0.01 | 0.00 | 93 | 1008.5 |
| 20260505023054 | 50 | 225 | 2.0 | 4.0 | 0.00 | 0.01 | 0.00 | 93 | 1008.7 |
| 20260505022321 | 50 | 226 | 0.0 | 4.0 | 0.00 | 0.01 | 0.00 | 93 | 1008.6 |
| 20260505021822 | 50 | 216 | 3.0 | 4.0 | 0.00 | 0.01 | 0.00 | 93 | 1008.7 |
| 20260505021321 | 50 | 169 | 2.0 | 3.0 | 0.00 | 0.01 | 0.00 | 93 | 1008.7 |
| 20260505020821 | 50 | 178 | 2.0 | 3.0 | 0.00 | 0.01 | 0.00 | 93 | 1008.8 |
| 20260505020321 | 50 | 177 | 2.0 | 4.0 | 0.00 | 0.01 | 0.00 | 93 | 1008.6 |
| 20260505015821 | 50 | 133 | 3.0 | 4.0 | 0.00 | 0.01 | 0.00 | 93 | 1008.8 |
| 20260505015321 | 50 | 147 | 1.0 | 2.0 | 0.00 | 0.01 | 0.00 | 93 | 1008.8 |
| 20260505014820 | 50 | 147 | 1.0 | 2.0 | 0.00 | 0.01 | 0.00 | 93 | 1008.9 |
| 20260505014320 | 50 | 140 | 0.0 | 1.0 | 0.00 | 0.01 | 0.00 | 93 | 1008.8 |
| 20260505014054 | 50 | 140 | 0.0 | 2.0 | 0.00 | 0.01 | 0.00 | 93 | 1008.8 |
| 20260505013321 | 50 | 149 | 1.0 | 2.0 | 0.00 | 0.01 | 0.00 | 93 | 1008.9 |
| 20260505013054 | 50 | 156 | 1.0 | 3.0 | 0.00 | 0.01 | 0.00 | 93 | 1008.9 |
| 20260505012319 | 50 | 145 | 2.0 | 4.0 | 0.00 | 0.01 | 0.00 | 93 | 1008.8 |
| 20260505012049 | 50 | 119 | 3.0 | 4.0 | 0.00 | 0.01 | 0.00 | 93 | 1008.8 |
| 20260505011320 | 50 | 101 | 1.0 | 3.0 | 0.00 | 0.01 | 0.00 | 93 | 1008.9 |
| 20260505010819 | 50 | 170 | 0.0 | 2.0 | 0.00 | 0.01 | 0.00 | 93 | 1008.9 |
| 20260505010550 | 50 | 164 | 0.0 | 2.0 | 0.00 | 0.01 | 0.00 | 93 | 1008.9 |
| 20260505010128 | 50 | 170 | 1.0 | 2.0 | 0.00 | 0.01 | 0.00 | 93 | 1009.0 |
| 20260505005319 | 50 | 169 | 0.0 | 1.0 | 0.00 | 0.01 | 0.00 | 93 | 1009.1 |
| 20260505004819 | 50 | 170 | 0.0 | 1.0 | 0.00 | 0.01 | 0.00 | 93 | 1009.3 |
| 20260505004318 | 50 | 173 | 0.0 | 0.0 | 0.00 | 0.01 | 0.00 | 93 | 1009.2 |
| 20260505003819 | 50 | 171 | 0.0 | 0.0 | 0.00 | 0.01 | 0.00 | 93 | 1009.3 |
| 20260505003319 | 50 | 171 | 0.0 | 0.0 | 0.00 | 0.01 | 0.00 | 93 | 1009.4 |
| 20260505002819 | 50 | 169 | 0.0 | 0.0 | 0.00 | 0.01 | 0.00 | 93 | 1009.4 |
| 20260505002319 | 50 | 170 | 0.0 | 0.0 | 0.00 | 0.01 | 0.00 | 93 | 1009.5 |
| 20260505001819 | 50 | 167 | 0.0 | 1.0 | 0.00 | 0.01 | 0.00 | 93 | 1009.7 |
| 20260505001318 | 50 | 171 | 0.0 | 2.0 | 0.00 | 0.01 | 0.00 | 93 | 1009.8 |
| 20260505000818 | 50 | 163 | 0.0 | 2.0 | 0.00 | 0.01 | 0.00 | 93 | 1009.9 |
| 20260505000317 | 50 | 170 | 1.0 | 2.0 | 0.00 | 0.01 | 0.00 | 93 | 1009.9 |
| 20260504235818 | 50 | 178 | 0.0 | 2.0 | 0.00 | 0.01 | 0.00 | 92 | 1009.9 |
| 20260504235317 | 50 | 310 | 1.0 | 3.0 | 0.00 | 0.01 | 0.00 | 92 | 1010.0 |
| 20260504235053 | 50 | 170 | 2.0 | 3.0 | 0.00 | 0.01 | 0.00 | 92 | 1010.2 |
| 20260504234556 | 50 | 178 | 1.0 | 2.0 | 0.00 | 0.01 | 0.00 | 92 | 1010.1 |
| 20260504233817 | 50 | 183 | 0.0 | 2.0 | 0.00 | 0.01 | 0.00 | 92 | 1010.1 |
| 20260504233313 | 50 | 169 | 1.0 | 4.0 | 0.00 | 0.01 | 0.00 | 92 | 1010.2 |
| 20260504232813 | 50 | 173 | 2.0 | 5.0 | 0.00 | 0.01 | 0.00 | 92 | 1010.2 |
| 20260504232316 | 50 | 181 | 4.0 | 5.0 | 0.00 | 0.01 | 0.00 | 92 | 1010.4 |
| 20260504231811 | 51 | 128 | 3.0 | 5.0 | 0.00 | 0.01 | 0.00 | 92 | 1010.4 |
| 20260504231312 | 51 | 162 | 0.0 | 3.0 | 0.00 | 0.01 | 0.00 | 92 | 1010.3 |
| 20260504230811 | 51 | 149 | 2.0 | 4.0 | 0.00 | 0.01 | 0.00 | 92 | 1010.4 |
| 20260504230309 | 51 | 159 | 3.0 | 4.0 | 0.00 | 0.01 | 0.00 | 91 | 1010.5 |
| 20260504225808 | 51 | 147 | 1.0 | 4.0 | 0.00 | 0.01 | 0.00 | 91 | 1010.5 |
| 20260504225306 | 51 | 149 | 3.0 | 4.0 | 0.00 | 0.01 | 0.00 | 91 | 1010.6 |
| 20260504224805 | 51 | 157 | 3.0 | 4.0 | 0.00 | 0.01 | 0.00 | 91 | 1010.6 |
| 20260504223804 | 52 | 157 | 0.0 | 3.0 | 0.00 | 0.01 | 0.00 | 91 | 1010.5 |
| 20260504223304 | 52 | 159 | 2.0 | 3.0 | 0.00 | 0.01 | 0.00 | 91 | 1010.6 |
| 20260504222803 | 52 | 160 | 1.0 | 3.0 | 0.00 | 0.01 | 0.00 | 91 | 1010.7 |
| 20260504222305 | 52 | 156 | 2.0 | 3.0 | 0.00 | 0.01 | 0.00 | 91 | 1010.7 |
| 20260504221805 | 52 | 156 | 0.0 | 2.0 | 0.00 | 0.01 | 0.00 | 90 | 1010.7 |
| 20260504221303 | 52 | 160 | 2.0 | 2.0 | 0.00 | 0.01 | 0.00 | 90 | 1010.7 |
| 20260504220802 | 52 | 126 | 0.0 | 0.0 | 0.00 | 0.01 | 0.00 | 90 | 1010.6 |
| 20260504220303 | 52 | 123 | 0.0 | 0.0 | 0.00 | 0.01 | 0.00 | 90 | 1010.6 |
| 20260504215801 | 52 | 128 | 0.0 | 0.0 | 0.00 | 0.01 | 0.01 | 90 | 1010.6 |
| 20260504215304 | 53 | 125 | 0.0 | 0.0 | 0.00 | 0.01 | 0.01 | 89 | 1010.6 |
| 20260504214801 | 53 | 123 | 0.0 | 0.0 | 0.00 | 0.01 | 0.01 | 89 | 1010.8 |
| 20260504214304 | 53 | 123 | 0.0 | 2.0 | 0.00 | 0.01 | 0.01 | 89 | 1010.9 |
| 20260504213802 | 53 | 123 | 1.0 | 4.0 | 0.00 | 0.01 | 0.01 | 89 | 1010.8 |
| 20260504213301 | 53 | 126 | 3.0 | 4.0 | 0.00 | 0.01 | 0.01 | 89 | 1010.8 |
| 20260504212802 | 53 | 129 | 3.0 | 4.0 | 0.00 | 0.01 | 0.01 | 89 | 1010.8 |
| 20260504212303 | 54 | 122 | 2.0 | 4.0 | 0.00 | 0.01 | 0.01 | 88 | 1010.9 |
| 20260504211802 | 54 | 167 | 0.0 | 2.0 | 0.00 | 0.01 | 0.01 | 88 | 1010.8 |
| 20260504211303 | 54 | 169 | 2.0 | 2.0 | 0.00 | 0.01 | 0.01 | 88 | 1010.8 |
| 20260504211058 | 54 | 176 | 1.0 | 3.0 | 0.00 | 0.01 | 0.01 | 88 | 1011.0 |
| 20260504210302 | 55 | 178 | 2.0 | 4.0 | 0.00 | 0.01 | 0.01 | 88 | 1011.0 |
| 20260504205802 | 55 | 183 | 2.0 | 5.0 | 0.00 | 0.01 | 0.01 | 88 | 1011.0 |
| 20260504205304 | 55 | 154 | 3.0 | 6.0 | 0.00 | 0.01 | 0.01 | 88 | 1011.0 |
| 20260504204802 | 55 | 185 | 5.0 | 6.0 | 0.00 | 0.01 | 0.01 | 87 | 1011.0 |
| 20260504204303 | 55 | 164 | 5.0 | 5.0 | 0.00 | 0.01 | 0.01 | 87 | 1011.2 |
| 20260504203802 | 55 | 150 | 4.0 | 5.0 | 0.00 | 0.01 | 0.01 | 87 | 1011.2 |
| 20260504203302 | 56 | 150 | 4.0 | 5.0 | 0.00 | 0.01 | 0.01 | 87 | 1011.2 |
| 20260504202802 | 56 | 202 | 3.0 | 5.0 | 0.00 | 0.01 | 0.01 | 87 | 1011.2 |
| 20260504202535 | 56 | 166 | 3.0 | 4.0 | 0.00 | 0.01 | 0.01 | 87 | 1011.3 |
| 20260504201802 | 56 | 157 | 2.0 | 3.0 | 0.00 | 0.01 | 0.01 | 87 | 1011.4 |
| 20260504201303 | 56 | 166 | 1.0 | 4.0 | 0.00 | 0.01 | 0.01 | 87 | 1011.4 |
| 20260504200802 | 56 | 156 | 2.0 | 4.0 | 0.00 | 0.01 | 0.01 | 87 | 1011.3 |
| 20260504200303 | 56 | 154 | 3.0 | 4.0 | 0.00 | 0.01 | 0.01 | 87 | 1011.3 |
| 20260504195802 | 56 | 166 | 3.0 | 4.0 | 0.00 | 0.01 | 0.01 | 87 | 1011.2 |
| 20260504195301 | 56 | 164 | 2.0 | 4.0 | 0.00 | 0.01 | 0.01 | 86 | 1011.2 |
| 20260504194802 | 56 | 169 | 3.0 | 4.0 | 0.00 | 0.01 | 0.01 | 86 | 1011.2 |
| 20260504194256 | 56 | 162 | 3.0 | 4.0 | 0.00 | 0.01 | 0.01 | 86 | 1011.2 |
| 20260504194032 | 56 | 176 | 3.0 | 5.0 | 0.00 | 0.01 | 0.01 | 86 | 1011.2 |
| 20260504193255 | 56 | 167 | 4.0 | 5.0 | 0.00 | 0.01 | 0.01 | 86 | 1011.3 |
| 20260504193028 | 56 | 187 | 3.0 | 6.0 | 0.00 | 0.01 | 0.01 | 86 | 1011.1 |
| 20260504192252 | 56 | 190 | 4.0 | 6.0 | 0.00 | 0.01 | 0.01 | 86 | 1011.2 |
| 20260504191754 | 56 | 219 | 3.0 | 6.0 | 0.00 | 0.01 | 0.01 | 85 | 1011.2 |
| 20260504191543 | 56 | 169 | 5.0 | 7.0 | 0.00 | 0.01 | 0.01 | 85 | 1011.3 |
| 20260504190752 | 57 | 166 | 4.0 | 7.0 | 0.00 | 0.01 | 0.01 | 84 | 1011.2 |
| 20260504190251 | 57 | 174 | 4.0 | 7.0 | 0.00 | 0.01 | 0.01 | 84 | 1011.2 |
| 20260504185752 | 57 | 150 | 4.0 | 6.0 | 0.00 | 0.01 | 0.01 | 83 | 1011.3 |
| 20260504185252 | 57 | 184 | 5.0 | 6.0 | 0.00 | 0.01 | 0.01 | 82 | 1011.2 |
| 20260504184750 | 57 | 200 | 4.0 | 5.0 | 0.00 | 0.01 | 0.01 | 82 | 1011.2 |
| 20260504184524 | 57 | 190 | 4.0 | 6.0 | 0.00 | 0.01 | 0.01 | 82 | 1011.3 |
| 20260504183748 | 57 | 201 | 4.0 | 6.0 | 0.00 | 0.01 | 0.01 | 82 | 1011.3 |
| 20260504183248 | 57 | 216 | 5.0 | 6.0 | 0.00 | 0.01 | 0.01 | 82 | 1011.3 |
| 20260504182747 | 57 | 216 | 4.0 | 6.0 | 0.00 | 0.01 | 0.01 | 82 | 1011.3 |
| 20260504182247 | 57 | 208 | 4.0 | 6.0 | 0.00 | 0.01 | 0.01 | 82 | 1011.3 |
| 20260504181747 | 57 | 221 | 4.0 | 6.0 | 0.00 | 0.01 | 0.01 | 82 | 1011.4 |
| 20260504181247 | 57 | 233 | 4.0 | 6.0 | 0.00 | 0.01 | 0.01 | 82 | 1011.4 |
| 20260504180747 | 57 | 207 | 4.0 | 6.0 | 0.00 | 0.01 | 0.01 | 82 | 1011.3 |
| 20260504180247 | 57 | 310 | 4.0 | 9.0 | 0.00 | 0.01 | 0.01 | 82 | 1011.3 |
| 20260504175740 | 57 | 233 | 5.0 | 10.0 | 0.00 | 0.01 | 0.01 | 82 | 1011.4 |
| 20260504175240 | 57 | 240 | 7.0 | 10.0 | 0.00 | 0.01 | 0.01 | 82 | 1011.6 |
| 20260504174732 | 57 | 224 | 3.0 | 9.0 | 0.00 | 0.01 | 0.01 | 82 | 1011.6 |
| 20260504174232 | 57 | 208 | 5.0 | 9.0 | 0.00 | 0.01 | 0.01 | 82 | 1011.7 |
| 20260504173732 | 57 | 238 | 6.0 | 9.0 | 0.00 | 0.01 | 0.01 | 82 | 1011.6 |
| 20260504173457 | 57 | 310 | 6.0 | 9.0 | 0.00 | 0.01 | 0.01 | 83 | 1011.7 |
| 20260504172732 | 57 | 242 | 7.0 | 9.0 | 0.00 | 0.01 | 0.01 | 82 | 1011.7 |
| 20260504172231 | 57 | 212 | 5.0 | 11.0 | 0.00 | 0.01 | 0.01 | 83 | 1011.8 |
| 20260504171731 | 58 | 226 | 7.0 | 11.0 | 0.00 | 0.01 | 0.01 | 83 | 1011.7 |
| 20260504171231 | 57 | 222 | 9.0 | 12.0 | 0.00 | 0.01 | 0.01 | 83 | 1011.7 |
| 20260504170731 | 58 | 238 | 8.0 | 12.0 | 0.00 | 0.01 | 0.01 | 83 | 1011.7 |
| 20260504170231 | 58 | 226 | 6.0 | 11.0 | 0.00 | 0.01 | 0.01 | 82 | 1011.8 |